Time;durP1;ratioP1;P1;durP2;ratioP2;P2;SDS_P1;SDS_P2;PMS_P1;PMS_P2;Temp;Humidity;BMP_temperature;BMP_pressure;BME280_temperature;BME280_humidity;BME280_pressure;Samples;Min_cycle;Max_cycle;Signal;HPM_P1;HPM_P2
2023/09/14 00:00:47;;;;;;;2.60;1.93;;;18.70;94.10;;;;;;20834016;28;20221;-62
2023/09/14 00:10:56;;;;;;;2.70;2.30;;;18.70;94.00;;;;;;20832208;28;20215;-62
2023/09/14 00:20:58;;;;;;;7.73;1.87;;;18.70;93.90;;;;;;20832962;28;20686;-61
2023/09/14 00:31:00;;;;;;;4.17;2.10;;;18.50;93.90;;;;;;20831746;28;20235;-62
2023/09/14 00:41:02;;;;;;;2.30;1.73;;;18.30;93.80;;;;;;20831002;28;20208;-62
2023/09/14 00:51:04;;;;;;;2.60;1.87;;;18.20;93.90;;;;;;20830748;28;20246;-62
2023/09/14 01:01:07;;;;;;;3.87;2.30;;;18.00;94.00;;;;;;20830080;28;20310;-61
2023/09/14 01:11:09;;;;;;;3.23;2.10;;;18.00;94.20;;;;;;20829637;28;20234;-62
2023/09/14 01:21:25;;;;;;;3.37;2.00;;;17.90;94.30;;;;;;20830630;28;20294;-61
2023/09/14 01:31:28;;;;;;;7.23;2.20;;;17.80;94.30;;;;;;20845662;28;20242;-61
2023/09/14 01:41:31;;;;;;;2.70;2.20;;;17.60;94.60;;;;;;20844872;28;20232;-61
2023/09/14 01:51:33;;;;;;;3.43;2.23;;;17.50;94.80;;;;;;20842996;28;20324;-61
2023/09/14 02:01:34;;;;;;;2.80;1.93;;;17.40;94.90;;;;;;20843342;28;20208;-61
2023/09/14 02:11:36;;;;;;;3.73;2.20;;;17.30;94.90;;;;;;20842664;28;20793;-63
2023/09/14 02:21:38;;;;;;;3.40;2.10;;;17.20;94.20;;;;;;20842470;28;20213;-72
2023/09/14 02:31:40;;;;;;;2.90;2.00;;;17.20;93.50;;;;;;20841045;28;20235;-70
2023/09/14 02:41:41;;;;;;;5.43;2.10;;;17.10;93.10;;;;;;20839356;28;20543;-66
2023/09/14 02:51:43;;;;;;;4.50;2.40;;;17.10;93.00;;;;;;20839448;28;20248;-62
2023/09/14 03:01:45;;;;;;;3.97;2.63;;;17.10;93.00;;;;;;20838782;28;20618;-62
2023/09/14 03:11:47;;;;;;;4.63;2.37;;;17.00;93.40;;;;;;20837935;28;20264;-61
2023/09/14 03:21:48;;;;;;;4.43;2.43;;;17.00;93.80;;;;;;20837679;28;20686;-61
2023/09/14 03:31:51;;;;;;;5.77;2.40;;;17.00;94.10;;;;;;20868191;28;20248;-61
2023/09/14 03:41:53;;;;;;;4.67;2.40;;;17.00;94.30;;;;;;20835655;28;20213;-62
2023/09/14 03:51:55;;;;;;;4.83;2.63;;;16.80;94.40;;;;;;20835057;28;20329;-61
2023/09/14 04:01:57;;;;;;;7.17;3.43;;;16.70;94.50;;;;;;20833856;28;20215;-72
2023/09/14 04:11:58;;;;;;;9.03;2.63;;;16.50;94.80;;;;;;20832950;28;20233;-70
2023/09/14 04:22:00;;;;;;;7.67;3.40;;;16.50;94.90;;;;;;20832959;28;20660;-72
2023/09/14 04:32:03;;;;;;;5.83;2.53;;;16.30;94.90;;;;;;20831826;28;20241;-72
2023/09/14 04:42:05;;;;;;;7.50;2.90;;;16.40;95.00;;;;;;20831432;28;20208;-65
2023/09/14 04:52:07;;;;;;;7.07;3.50;;;16.20;95.10;;;;;;20830065;28;20272;-63
2023/09/14 05:02:09;;;;;;;6.47;2.90;;;16.10;95.30;;;;;;20828190;28;20262;-63
2023/09/14 05:12:10;;;;;;;6.60;2.83;;;16.10;95.40;;;;;;20829516;28;20242;-61
2023/09/14 05:22:12;;;;;;;10.60;3.27;;;16.00;95.50;;;;;;20829629;28;20208;-61
2023/09/14 05:32:17;;;;;;;11.30;5.20;;;16.10;95.50;;;;;;20828825;28;20327;-64
2023/09/14 05:42:19;;;;;;;6.73;3.37;;;16.10;95.40;;;;;;20828664;28;20623;-61
2023/09/14 05:52:21;;;;;;;7.17;3.37;;;16.20;95.30;;;;;;20828327;28;20795;-61
2023/09/14 06:02:23;;;;;;;5.93;2.87;;;16.20;95.30;;;;;;20827952;28;20256;-62
2023/09/14 06:12:24;;;;;;;10.20;4.00;;;16.20;95.20;;;;;;20833486;28;20241;-63
2023/09/14 06:22:26;;;;;;;10.07;3.50;;;16.30;95.30;;;;;;20841021;28;20263;-63
2023/09/14 06:32:28;;;;;;;11.70;3.27;;;16.30;94.70;;;;;;20871851;28;20242;-67
2023/09/14 06:42:30;;;;;;;11.70;4.27;;;16.40;94.70;;;;;;20839167;28;20212;-64
2023/09/14 06:52:33;;;;;;;8.93;3.60;;;16.40;94.40;;;;;;20838795;28;20275;-61
2023/09/14 07:02:35;;;;;;;12.37;4.00;;;16.50;94.20;;;;;;20838066;28;20640;-62
2023/09/14 07:12:38;;;;;;;8.67;3.37;;;16.60;94.00;;;;;;20837082;28;20243;-62
2023/09/14 07:22:40;;;;;;;12.60;3.70;;;16.80;94.00;;;;;;20836291;28;20628;-67
2023/09/14 07:32:41;;;;;;;5.60;3.00;;;16.80;93.60;;;;;;20835347;28;20324;-66
2023/09/14 07:42:43;;;;;;;10.30;3.30;;;17.00;93.30;;;;;;20834972;28;20257;-63
2023/09/14 07:52:45;;;;;;;11.50;3.50;;;17.30;93.00;;;;;;20834266;28;20237;-63
2023/09/14 08:02:47;;;;;;;14.03;3.67;;;17.50;92.70;;;;;;20865161;28;20220;-68
2023/09/14 08:12:48;;;;;;;10.27;3.40;;;17.50;92.30;;;;;;20831321;28;20626;-69
2023/09/14 08:22:50;;;;;;;9.33;3.43;;;17.70;92.10;;;;;;20832068;28;20204;-73
2023/09/14 08:32:52;;;;;;;7.20;3.40;;;17.80;92.00;;;;;;20830897;28;20243;-73
2023/09/14 08:42:55;;;;;;;8.23;3.13;;;18.10;91.80;;;;;;20830966;28;20211;-72
2023/09/14 08:52:58;;;;;;;4.37;2.40;;;18.40;91.50;;;;;;20830476;28;20244;-63
2023/09/14 09:02:59;;;;;;;6.83;2.93;;;18.50;91.40;;;;;;20829129;28;20301;-63
2023/09/14 09:13:04;;;;;;;3.33;1.93;;;18.70;91.20;;;;;;20827943;28;20258;-63
2023/09/14 09:23:06;;;;;;;4.07;2.23;;;19.00;90.90;;;;;;20828770;28;20659;-63
2023/09/14 09:33:08;;;;;;;10.67;4.93;;;19.10;90.50;;;;;;20828450;28;20244;-63
2023/09/14 09:43:15;;;;;;;9.57;2.70;;;19.20;90.10;;;;;;20830948;28;20208;-63
2023/09/14 09:53:17;;;;;;;6.87;2.57;;;19.40;89.30;;;;;;20843707;28;20635;-63
2023/09/14 10:03:23;;;;;;;9.97;2.40;;;19.60;88.30;;;;;;20842989;28;20265;-63
2023/09/14 10:13:26;;;;;;;4.17;2.20;;;19.80;87.50;;;;;;20842312;28;20236;-69
2023/09/14 10:23:29;;;;;;;12.20;3.57;;;20.10;86.40;;;;;;20841673;28;20235;-62
2023/09/14 10:33:32;;;;;;;4.23;2.30;;;20.20;85.00;;;;;;20840186;28;20233;-62
2023/09/14 10:43:34;;;;;;;3.57;2.30;;;20.20;83.30;;;;;;20839979;28;20215;-64
2023/09/14 10:53:38;;;;;;;5.37;2.10;;;20.50;82.70;;;;;;20870527;28;20763;-72
2023/09/14 11:04:08;;;;;;;4.80;2.10;;;20.80;81.50;;;;;;20837768;28;20208;-67
2023/09/14 11:14:14;;;;;;;7.40;3.30;;;20.90;80.00;;;;;;20837146;28;20236;-64
2023/09/14 11:24:18;;;;;;;5.47;2.20;;;21.10;79.00;;;;;;20836263;28;20697;-63
2023/09/14 11:34:23;;;;;;;2.57;2.00;;;21.30;77.90;;;;;;20832709;28;20282;-63
2023/09/14 11:44:31;;;;;;;43.03;23.47;;;21.60;76.80;;;;;;20833527;28;20291;-64
2023/09/14 11:54:46;;;;;;;9.37;4.83;;;22.00;75.90;;;;;;20832736;28;20306;-72
2023/09/14 12:04:48;;;;;;;4.47;2.23;;;22.40;75.10;;;;;;20874982;28;20211;-66
2023/09/14 12:14:51;;;;;;;5.73;2.30;;;22.90;75.00;;;;;;20863479;28;20237;-73
2023/09/14 12:24:53;;;;;;;3.37;2.40;;;23.10;73.90;;;;;;20874226;28;20247;-73
2023/09/14 12:34:56;;;;;;;35.60;16.93;;;23.40;72.60;;;;;;20861450;28;20228;-73
2023/09/14 12:44:58;;;;;;;6.43;3.10;;;23.50;71.70;;;;;;20852187;28;20583;-63
2023/09/14 12:55:06;;;;;;;11.30;5.53;;;23.50;69.70;;;;;;20829337;28;20699;-63
2023/09/14 13:05:08;;;;;;;3.50;2.10;;;23.60;68.30;;;;;;20829708;28;20209;-61
2023/09/14 13:15:38;;;;;;;3.17;2.20;;;23.40;67.00;;;;;;20829001;28;20714;-74
2023/09/14 13:25:41;;;;;;;4.00;2.40;;;23.50;66.20;;;;;;20844081;28;20205;-72
2023/09/14 13:35:42;;;;;;;3.13;2.00;;;23.30;65.00;;;;;;20844638;28;20241;-72
2023/09/14 13:45:44;;;;;;;3.50;2.23;;;23.20;65.60;;;;;;20844895;28;20296;-70
2023/09/14 13:55:46;;;;;;;6.50;3.90;;;23.40;65.90;;;;;;20842921;28;20294;-72
2023/09/14 14:05:48;;;;;;;5.90;2.90;;;23.60;66.00;;;;;;20842135;28;20300;-74
2023/09/14 14:15:50;;;;;;;4.13;2.30;;;23.90;65.20;;;;;;20840680;28;20264;-74
2023/09/14 14:25:52;;;;;;;4.43;2.20;;;24.50;62.60;;;;;;20922493;28;20203;-72
2023/09/14 14:35:54;;;;;;;2.07;1.60;;;24.40;60.80;;;;;;20921303;28;20228;-70
2023/09/14 14:45:57;;;;;;;3.47;2.23;;;24.90;59.40;;;;;;20921465;28;20204;-71
2023/09/14 14:56:00;;;;;;;8.02;2.10;;;;;;;;;;20891462;28;20244;-69
2023/09/14 15:06:02;;;;;;;3.92;2.38;;;;;;;;;;20875664;28;20295;-69
2023/09/14 15:16:04;;;;;;;3.13;2.10;;;24.80;57.90;;;;;;20872270;28;20725;-68
2023/09/14 15:26:06;;;;;;;2.80;2.07;;;25.30;55.60;;;;;;20873043;28;20660;-70
2023/09/14 15:36:08;;;;;;;3.90;2.43;;;24.60;55.80;;;;;;20877878;28;20281;-69
2023/09/14 15:46:09;;;;;;;4.17;2.03;;;24.50;56.60;;;;;;20869880;28;20227;-69
2023/09/14 15:56:16;;;;;;;4.00;2.13;;;23.90;57.20;;;;;;20868603;28;20247;-70
2023/09/14 16:06:18;;;;;;;5.57;2.63;;;23.50;57.60;;;;;;20848225;28;20213;-70
2023/09/14 16:16:19;;;;;;;3.73;2.00;;;22.90;57.30;;;;;;20833980;28;20315;-76
2023/09/14 16:26:22;;;;;;;3.47;1.87;;;22.90;57.90;;;;;;20836121;28;20199;-70
2023/09/14 16:36:23;;;;;;;3.70;1.70;;;22.50;58.60;;;;;;20913475;28;20275;-68
2023/09/14 16:46:25;;;;;;;2.83;1.90;;;22.50;59.20;;;;;;20867084;28;20212;-73
2023/09/14 16:56:27;;;;;;;2.83;1.90;;;22.30;59.80;;;;;;20830173;28;20251;-73
2023/09/14 17:06:29;;;;;;;6.43;2.00;;;22.10;60.20;;;;;;20829861;28;20633;-73
2023/09/14 17:16:31;;;;;;;3.57;2.10;;;21.90;60.60;;;;;;20829728;28;20236;-76
2023/09/14 17:26:33;;;;;;;4.47;1.93;;;21.70;61.10;;;;;;20834507;28;20330;-77
2023/09/14 17:36:35;;;;;;;3.93;2.17;;;21.50;61.70;;;;;;20911737;28;20238;-70
2023/09/14 17:46:36;;;;;;;4.37;3.47;;;21.20;62.10;;;;;;20890160;28;20201;-79
2023/09/14 17:56:38;;;;;;;3.93;1.97;;;20.70;64.80;;;;;;20827988;28;20604;-78
2023/09/14 18:06:40;;;;;;;7.30;2.23;;;20.50;65.80;;;;;;20834077;28;20228;-69
2023/09/14 18:16:42;;;;;;;5.10;2.17;;;20.50;66.50;;;;;;20841517;28;20271;-68
2023/09/14 18:26:44;;;;;;;5.90;2.10;;;20.30;67.40;;;;;;20869490;28;20208;-69
2023/09/14 18:36:45;;;;;;;5.50;2.67;;;20.10;68.80;;;;;;20858610;28;20236;-65
2023/09/14 18:46:47;;;;;;;4.47;2.80;;;19.80;70.00;;;;;;20911170;28;20209;-64
2023/09/14 18:56:49;;;;;;;8.13;3.43;;;19.50;71.50;;;;;;20848065;28;20730;-66
2023/09/14 19:06:53;;;;;;;11.20;4.87;;;19.30;71.60;;;;;;20839224;28;20300;-68
2023/09/14 19:16:55;;;;;;;10.33;4.53;;;19.10;72.50;;;;;;20834418;28;20240;-65
2023/09/14 19:26:57;;;;;;;4.83;3.80;;;18.80;73.40;;;;;;20838878;28;20293;-65
2023/09/14 19:36:59;;;;;;;5.37;3.30;;;18.50;74.50;;;;;;20836770;28;20235;-67
2023/09/14 19:47:01;;;;;;;4.23;2.90;;;18.40;75.40;;;;;;20842180;28;20666;-67
2023/09/14 19:57:03;;;;;;;3.80;3.20;;;18.20;76.40;;;;;;20871980;28;20590;-67
2023/09/14 20:07:08;;;;;;;6.37;3.53;;;18.10;77.50;;;;;;20877188;28;20306;-68
2023/09/14 20:17:11;;;;;;;9.67;4.50;;;17.70;78.80;;;;;;20833995;28;20638;-69
2023/09/14 20:27:15;;;;;;;9.67;3.50;;;17.60;79.90;;;;;;20832160;28;20207;-70
2023/09/14 20:37:18;;;;;;;5.60;2.37;;;17.40;81.00;;;;;;20832352;28;20288;-69
2023/09/14 20:47:21;;;;;;;6.83;2.63;;;17.20;82.20;;;;;;20841624;28;20561;-70
2023/09/14 20:57:25;;;;;;;6.80;2.30;;;17.10;83.30;;;;;;20873105;28;20279;-68
2023/09/14 21:07:27;;;;;;;5.53;2.67;;;17.00;84.40;;;;;;20864604;28;20295;-70
2023/09/14 21:17:29;;;;;;;4.77;2.70;;;16.90;85.50;;;;;;20865928;28;20233;-68
2023/09/14 21:27:31;;;;;;;5.90;2.70;;;16.90;86.40;;;;;;20872265;28;20246;-67
2023/09/14 21:37:32;;;;;;;5.57;2.87;;;16.80;87.10;;;;;;20864774;28;20766;-66
2023/09/14 21:47:34;;;;;;;4.80;2.57;;;16.60;88.20;;;;;;20879363;28;20779;-70
2023/09/14 21:57:38;;;;;;;5.23;2.70;;;16.50;89.20;;;;;;20887089;28;20246;-71
2023/09/14 22:07:40;;;;;;;6.13;2.67;;;16.40;90.00;;;;;;20838997;28;20204;-71
2023/09/14 22:17:43;;;;;;;5.80;3.00;;;16.30;90.40;;;;;;20841055;28;20715;-67
2023/09/14 22:27:48;;;;;;;3.53;2.80;;;16.30;90.80;;;;;;20842214;28;20209;-65
2023/09/14 22:37:50;;;;;;;6.53;2.90;;;16.10;91.20;;;;;;20841832;28;20268;-64
2023/09/14 22:47:55;;;;;;;5.10;2.63;;;16.00;91.70;;;;;;20840527;28;20596;-65
2023/09/14 22:57:57;;;;;;;8.73;3.00;;;15.80;92.00;;;;;;20838941;28;20715;-65
2023/09/14 23:07:59;;;;;;;3.80;2.73;;;15.80;92.20;;;;;;20839077;28;20212;-65
2023/09/14 23:18:01;;;;;;;4.40;2.97;;;15.60;92.60;;;;;;20838614;28;20718;-64
2023/09/14 23:28:04;;;;;;;4.03;2.70;;;15.60;93.00;;;;;;20837586;28;20652;-64
2023/09/14 23:38:07;;;;;;;4.23;2.60;;;15.50;93.20;;;;;;20836895;28;20260;-64
2023/09/14 23:48:12;;;;;;;3.47;2.50;;;15.40;93.80;;;;;;20836203;28;20234;-64
2023/09/14 23:58:14;;;;;;;4.00;2.37;;;15.30;93.70;;;;;;20846637;28;20236;-64
